sensor_id;sensor_type;location;lat;lon;timestamp;pressure;altitude;pressure_sealevel;temperature;humidity
44934;BME280;30667;43.614;1.442;2023-03-15T00:01:37;100380.09;;;8.99;100.00
44934;BME280;30667;43.614;1.442;2023-03-15T00:04:02;100374.97;;;8.97;100.00
44934;BME280;30667;43.614;1.442;2023-03-15T00:06:30;100373.06;;;8.98;100.00
44934;BME280;30667;43.614;1.442;2023-03-15T00:08:58;100359.56;;;8.93;100.00
44934;BME280;30667;43.614;1.442;2023-03-15T00:11:23;100369.53;;;8.92;100.00
44934;BME280;30667;43.614;1.442;2023-03-15T00:13:49;100373.56;;;8.89;100.00
44934;BME280;30667;43.614;1.442;2023-03-15T00:16:15;100365.19;;;8.91;100.00
44934;BME280;30667;43.614;1.442;2023-03-15T00:18:43;100366.25;;;8.90;100.00
44934;BME280;30667;43.614;1.442;2023-03-15T00:21:09;100362.75;;;8.89;100.00
44934;BME280;30667;43.614;1.442;2023-03-15T00:23:34;100358.44;;;8.88;100.00
44934;BME280;30667;43.614;1.442;2023-03-15T00:26:00;100358.16;;;8.90;100.00
44934;BME280;30667;43.614;1.442;2023-03-15T00:28:25;100356.31;;;8.90;100.00
44934;BME280;30667;43.614;1.442;2023-03-15T00:31:02;100352.78;;;8.90;100.00
44934;BME280;30667;43.614;1.442;2023-03-15T00:33:27;100350.38;;;8.94;100.00
44934;BME280;30667;43.614;1.442;2023-03-15T00:35:53;100341.47;;;8.93;100.00
44934;BME280;30667;43.614;1.442;2023-03-15T00:38:18;100343.34;;;8.93;100.00
44934;BME280;30667;43.614;1.442;2023-03-15T00:40:43;100338.22;;;8.91;100.00
44934;BME280;30667;43.614;1.442;2023-03-15T00:43:09;100337.41;;;8.90;100.00
44934;BME280;30667;43.614;1.442;2023-03-15T00:45:35;100338.47;;;8.89;100.00
44934;BME280;30667;43.614;1.442;2023-03-15T00:48:00;100331.44;;;8.88;100.00
44934;BME280;30667;43.614;1.442;2023-03-15T00:50:26;100334.13;;;8.88;100.00
44934;BME280;30667;43.614;1.442;2023-03-15T00:52:51;100329.84;;;8.87;100.00
44934;BME280;30667;43.614;1.442;2023-03-15T00:55:18;100333.88;;;8.90;100.00
44934;BME280;30667;43.614;1.442;2023-03-15T00:57:45;100336.31;;;8.91;100.00
44934;BME280;30667;43.614;1.442;2023-03-15T01:00:14;100327.72;;;8.95;100.00
44934;BME280;30667;43.614;1.442;2023-03-15T01:02:40;100329.06;;;8.92;100.00
44934;BME280;30667;43.614;1.442;2023-03-15T01:05:07;100330.66;;;8.93;100.00
44934;BME280;30667;43.614;1.442;2023-03-15T01:07:33;100317.69;;;8.90;100.00
44934;BME280;30667;43.614;1.442;2023-03-15T01:10:00;100321.47;;;8.89;100.00
44934;BME280;30667;43.614;1.442;2023-03-15T01:12:27;100319.03;;;8.87;100.00
44934;BME280;30667;43.614;1.442;2023-03-15T01:14:53;100318.22;;;8.87;100.00
44934;BME280;30667;43.614;1.442;2023-03-15T01:17:18;100316.84;;;8.84;100.00
44934;BME280;30667;43.614;1.442;2023-03-15T01:19:44;100313.63;;;8.82;100.00
44934;BME280;30667;43.614;1.442;2023-03-15T01:22:09;100316.56;;;8.81;100.00
44934;BME280;30667;43.614;1.442;2023-03-15T01:24:34;100305.19;;;8.79;100.00
44934;BME280;30667;43.614;1.442;2023-03-15T01:27:00;100307.09;;;8.78;100.00
44934;BME280;30667;43.614;1.442;2023-03-15T01:29:25;100315.44;;;8.77;100.00
44934;BME280;30667;43.614;1.442;2023-03-15T01:31:51;100310.84;;;8.77;100.00
44934;BME280;30667;43.614;1.442;2023-03-15T01:34:16;100305.47;;;8.77;100.00
44934;BME280;30667;43.614;1.442;2023-03-15T01:36:42;100311.94;;;8.76;100.00
44934;BME280;30667;43.614;1.442;2023-03-15T01:39:07;100312.75;;;8.77;100.00
44934;BME280;30667;43.614;1.442;2023-03-15T01:41:33;100305.47;;;8.77;100.00
44934;BME280;30667;43.614;1.442;2023-03-15T01:43:58;100304.66;;;8.77;100.00
44934;BME280;30667;43.614;1.442;2023-03-15T01:46:31;100307.63;;;8.80;100.00
44934;BME280;30667;43.614;1.442;2023-03-15T01:54:32;100294.72;;;8.82;100.00
44934;BME280;30667;43.614;1.442;2023-03-15T01:57:05;100289.63;;;8.86;100.00
44934;BME280;30667;43.614;1.442;2023-03-15T01:59:35;100286.09;;;8.85;100.00
44934;BME280;30667;43.614;1.442;2023-03-15T02:02:04;100272.84;;;8.84;100.00
44934;BME280;30667;43.614;1.442;2023-03-15T02:04:33;100272.31;;;8.82;100.00
44934;BME280;30667;43.614;1.442;2023-03-15T02:07:02;100270.38;;;8.77;100.00
44934;BME280;30667;43.614;1.442;2023-03-15T02:09:36;100271.72;;;8.75;100.00
44934;BME280;30667;43.614;1.442;2023-03-15T02:12:08;100274.13;;;8.71;100.00
44934;BME280;30667;43.614;1.442;2023-03-15T02:14:34;100268.97;;;8.69;100.00
44934;BME280;30667;43.614;1.442;2023-03-15T02:16:59;100264.66;;;8.68;100.00
44934;BME280;30667;43.614;1.442;2023-03-15T02:19:48;100262.50;;;8.65;100.00
44934;BME280;30667;43.614;1.442;2023-03-15T02:22:57;100261.69;;;8.65;100.00
44934;BME280;30667;43.614;1.442;2023-03-15T02:28:05;100260.56;;;8.61;100.00
44934;BME280;30667;43.614;1.442;2023-03-15T02:30:32;100258.94;;;8.60;100.00
44934;BME280;30667;43.614;1.442;2023-03-15T02:33:00;100258.66;;;8.61;100.00
44934;BME280;30667;43.614;1.442;2023-03-15T02:35:30;100257.06;;;8.60;100.00
44934;BME280;30667;43.614;1.442;2023-03-15T02:37:59;100259.75;;;8.60;100.00
44934;BME280;30667;43.614;1.442;2023-03-15T02:40:28;100255.94;;;8.56;100.00
44934;BME280;30667;43.614;1.442;2023-03-15T02:42:58;100256.50;;;8.58;100.00
44934;BME280;30667;43.614;1.442;2023-03-15T02:45:26;100255.69;;;8.58;100.00
44934;BME280;30667;43.614;1.442;2023-03-15T02:47:53;100260.53;;;8.56;100.00
44934;BME280;30667;43.614;1.442;2023-03-15T02:50:19;100258.63;;;8.56;100.00
44934;BME280;30667;43.614;1.442;2023-03-15T02:52:44;100256.50;;;8.58;100.00
44934;BME280;30667;43.614;1.442;2023-03-15T02:55:10;100253.00;;;8.58;100.00
44934;BME280;30667;43.614;1.442;2023-03-15T02:57:36;100253.28;;;8.61;100.00
44934;BME280;30667;43.614;1.442;2023-03-15T03:00:04;100257.88;;;8.61;100.00
44934;BME280;30667;43.614;1.442;2023-03-15T03:02:37;100258.66;;;8.61;100.00
44934;BME280;30667;43.614;1.442;2023-03-15T03:05:03;100255.16;;;8.61;100.00
44934;BME280;30667;43.614;1.442;2023-03-15T03:07:29;100254.66;;;8.64;100.00
44934;BME280;30667;43.614;1.442;2023-03-15T03:09:55;100249.00;;;8.65;100.00
44934;BME280;30667;43.614;1.442;2023-03-15T03:12:20;100248.75;;;8.67;100.00
44934;BME280;30667;43.614;1.442;2023-03-15T03:14:45;100243.63;;;8.70;100.00
44934;BME280;30667;43.614;1.442;2023-03-15T03:17:11;100233.91;;;8.69;100.00
44934;BME280;30667;43.614;1.442;2023-03-15T03:19:36;100239.88;;;8.71;100.00
44934;BME280;30667;43.614;1.442;2023-03-15T03:22:02;100237.75;;;8.79;100.00
44934;BME280;30667;43.614;1.442;2023-03-15T03:24:28;100238.00;;;8.77;100.00
44934;BME280;30667;43.614;1.442;2023-03-15T03:26:54;100232.88;;;8.76;100.00
44934;BME280;30667;43.614;1.442;2023-03-15T03:29:23;100235.28;;;8.72;100.00
44934;BME280;30667;43.614;1.442;2023-03-15T03:31:49;100231.53;;;8.73;100.00
44934;BME280;30667;43.614;1.442;2023-03-15T03:34:15;100226.91;;;8.68;100.00
44934;BME280;30667;43.614;1.442;2023-03-15T03:36:44;100230.38;;;8.64;100.00
44934;BME280;30667;43.614;1.442;2023-03-15T03:39:10;100236.03;;;8.62;100.00
44934;BME280;30667;43.614;1.442;2023-03-15T03:41:35;100240.63;;;8.62;100.00
44934;BME280;30667;43.614;1.442;2023-03-15T03:44:01;100240.09;;;8.65;100.00
44934;BME280;30667;43.614;1.442;2023-03-15T03:46:27;100243.09;;;8.68;100.00
44934;BME280;30667;43.614;1.442;2023-03-15T03:48:53;100244.75;;;8.75;100.00
44934;BME280;30667;43.614;1.442;2023-03-15T03:51:19;100251.50;;;8.77;100.00
44934;BME280;30667;43.614;1.442;2023-03-15T03:53:44;100254.50;;;8.81;100.00
44934;BME280;30667;43.614;1.442;2023-03-15T03:56:10;100249.41;;;8.84;100.00
44934;BME280;30667;43.614;1.442;2023-03-15T03:58:35;100256.16;;;8.87;100.00
44934;BME280;30667;43.614;1.442;2023-03-15T04:01:01;100260.22;;;8.89;100.00
44934;BME280;30667;43.614;1.442;2023-03-15T04:03:28;100261.84;;;8.90;100.00
44934;BME280;30667;43.614;1.442;2023-03-15T04:05:57;100262.41;;;8.93;100.00
44934;BME280;30667;43.614;1.442;2023-03-15T04:08:24;100267.53;;;8.94;100.00
44934;BME280;30667;43.614;1.442;2023-03-15T04:10:51;100274.31;;;8.97;100.00
44934;BME280;30667;43.614;1.442;2023-03-15T04:13:18;100272.97;;;8.99;100.00
44934;BME280;30667;43.614;1.442;2023-03-15T04:15:43;100271.06;;;9.00;100.00
44934;BME280;30667;43.614;1.442;2023-03-15T04:18:08;100278.63;;;8.98;100.00
44934;BME280;30667;43.614;1.442;2023-03-15T04:20:34;100282.13;;;8.98;100.00
44934;BME280;30667;43.614;1.442;2023-03-15T04:23:00;100273.75;;;9.00;100.00
44934;BME280;30667;43.614;1.442;2023-03-15T04:25:25;100276.19;;;8.96;100.00
44934;BME280;30667;43.614;1.442;2023-03-15T04:27:52;100281.28;;;8.93;100.00
44934;BME280;30667;43.614;1.442;2023-03-15T04:30:24;100262.94;;;8.95;100.00
44934;BME280;30667;43.614;1.442;2023-03-15T04:32:51;100278.03;;;8.90;100.00
44934;BME280;30667;43.614;1.442;2023-03-15T04:35:24;100282.59;;;8.90;100.00
44934;BME280;30667;43.614;1.442;2023-03-15T04:37:50;100275.34;;;8.90;100.00
44934;BME280;30667;43.614;1.442;2023-03-15T04:40:16;100280.22;;;8.94;100.00
44934;BME280;30667;43.614;1.442;2023-03-15T04:42:41;100282.94;;;8.99;100.00
44934;BME280;30667;43.614;1.442;2023-03-15T04:45:07;100284.31;;;9.01;100.00
44934;BME280;30667;43.614;1.442;2023-03-15T04:47:32;100284.03;;;9.03;100.00
44934;BME280;30667;43.614;1.442;2023-03-15T04:49:58;100285.69;;;9.04;100.00
44934;BME280;30667;43.614;1.442;2023-03-15T04:52:24;100289.75;;;9.06;100.00
44934;BME280;30667;43.614;1.442;2023-03-15T04:54:49;100290.00;;;9.05;100.00
44934;BME280;30667;43.614;1.442;2023-03-15T04:57:14;100292.19;;;9.08;100.00
44934;BME280;30667;43.614;1.442;2023-03-15T04:59:40;100295.97;;;9.07;100.00
44934;BME280;30667;43.614;1.442;2023-03-15T05:02:05;100307.28;;;9.09;100.00
44934;BME280;30667;43.614;1.442;2023-03-15T05:04:31;100300.84;;;9.10;100.00
44934;BME280;30667;43.614;1.442;2023-03-15T05:06:56;100304.59;;;9.09;100.00
44934;BME280;30667;43.614;1.442;2023-03-15T05:09:21;100300.28;;;9.08;100.00
44934;BME280;30667;43.614;1.442;2023-03-15T05:11:47;100305.44;;;9.09;100.00
44934;BME280;30667;43.614;1.442;2023-03-15T05:14:13;100309.19;;;9.08;100.00
44934;BME280;30667;43.614;1.442;2023-03-15T05:16:38;100305.13;;;9.06;100.00
44934;BME280;30667;43.614;1.442;2023-03-15T05:19:04;100309.72;;;9.05;100.00
44934;BME280;30667;43.614;1.442;2023-03-15T05:21:29;100312.16;;;9.07;100.00
44934;BME280;30667;43.614;1.442;2023-03-15T05:23:56;100312.16;;;9.07;100.00
44934;BME280;30667;43.614;1.442;2023-03-15T05:26:22;100304.31;;;9.05;100.00
44934;BME280;30667;43.614;1.442;2023-03-15T05:28:49;100309.72;;;9.05;100.00
44934;BME280;30667;43.614;1.442;2023-03-15T05:31:16;100312.16;;;9.07;100.00
44934;BME280;30667;43.614;1.442;2023-03-15T05:33:42;100306.22;;;9.05;100.00
44934;BME280;30667;43.614;1.442;2023-03-15T05:36:11;100312.41;;;9.05;100.00
44934;BME280;30667;43.614;1.442;2023-03-15T05:38:39;100317.53;;;9.07;100.00
44934;BME280;30667;43.614;1.442;2023-03-15T05:41:07;100313.47;;;9.04;100.00
44934;BME280;30667;43.614;1.442;2023-03-15T05:43:33;100314.81;;;9.02;100.00
44934;BME280;30667;43.614;1.442;2023-03-15T05:45:58;100308.84;;;9.00;100.00
44934;BME280;30667;43.614;1.442;2023-03-15T05:48:23;100306.69;;;8.97;100.00
44934;BME280;30667;43.614;1.442;2023-03-15T05:50:49;100308.81;;;8.95;100.00
44934;BME280;30667;43.614;1.442;2023-03-15T05:53:14;100312.88;;;8.92;100.00
44934;BME280;30667;43.614;1.442;2023-03-15T05:55:40;100312.28;;;8.90;100.00
44934;BME280;30667;43.614;1.442;2023-03-15T05:58:05;100317.94;;;8.88;100.00
44934;BME280;30667;43.614;1.442;2023-03-15T06:00:31;100329.56;;;8.89;100.00
44934;BME280;30667;43.614;1.442;2023-03-15T06:02:56;100332.00;;;8.90;100.00
44934;BME280;30667;43.614;1.442;2023-03-15T06:05:22;100332.81;;;8.91;100.00
44934;BME280;30667;43.614;1.442;2023-03-15T06:07:47;100348.50;;;8.94;100.00
44934;BME280;30667;43.614;1.442;2023-03-15T06:10:13;100333.63;;;8.91;100.00
44934;BME280;30667;43.614;1.442;2023-03-15T06:12:38;100342.56;;;8.92;100.00
44934;BME280;30667;43.614;1.442;2023-03-15T06:15:04;100340.66;;;8.93;100.00
44934;BME280;30667;43.614;1.442;2023-03-15T06:17:30;100344.41;;;8.91;100.00
44934;BME280;30667;43.614;1.442;2023-03-15T06:19:55;100342.84;;;8.96;100.00
44934;BME280;30667;43.614;1.442;2023-03-15T06:22:21;100349.03;;;8.96;100.00
44934;BME280;30667;43.614;1.442;2023-03-15T06:24:48;100345.81;;;8.99;100.00
44934;BME280;30667;43.614;1.442;2023-03-15T06:27:14;100354.72;;;9.00;100.00
44934;BME280;30667;43.614;1.442;2023-03-15T06:29:39;100355.56;;;9.00;100.00
44934;BME280;30667;43.614;1.442;2023-03-15T06:32:05;100356.09;;;9.02;100.00
44934;BME280;30667;43.614;1.442;2023-03-15T06:34:30;100351.84;;;9.06;100.00
44934;BME280;30667;43.614;1.442;2023-03-15T06:36:56;100350.22;;;9.11;100.00
44934;BME280;30667;43.614;1.442;2023-03-15T06:39:21;100361.03;;;9.16;100.00
44934;BME280;30667;43.614;1.442;2023-03-15T06:41:48;100355.72;;;9.21;100.00
44934;BME280;30667;43.614;1.442;2023-03-15T06:44:13;100358.69;;;9.24;100.00
44934;BME280;30667;43.614;1.442;2023-03-15T06:46:38;100354.66;;;9.27;100.00
44934;BME280;30667;43.614;1.442;2023-03-15T06:49:04;100364.91;;;9.30;100.00
44934;BME280;30667;43.614;1.442;2023-03-15T06:51:29;100367.09;;;9.33;100.00
44934;BME280;30667;43.614;1.442;2023-03-15T06:53:55;100370.91;;;9.37;100.00
44934;BME280;30667;43.614;1.442;2023-03-15T06:56:21;100372.06;;;9.47;100.00
44934;BME280;30667;43.614;1.442;2023-03-15T06:58:46;100365.63;;;9.53;100.00
44934;BME280;30667;43.614;1.442;2023-03-15T07:01:12;100368.28;;;9.48;100.00
44934;BME280;30667;43.614;1.442;2023-03-15T07:03:38;100369.88;;;9.43;100.00
44934;BME280;30667;43.614;1.442;2023-03-15T07:06:04;100367.72;;;9.45;100.00
44934;BME280;30667;43.614;1.442;2023-03-15T07:08:29;100378.28;;;9.47;100.00
44934;BME280;30667;43.614;1.442;2023-03-15T07:10:55;100367.19;;;9.49;100.00
44934;BME280;30667;43.614;1.442;2023-03-15T07:13:20;100366.69;;;9.52;100.00
44934;BME280;30667;43.614;1.442;2023-03-15T07:15:51;100372.63;;;9.54;100.00
44934;BME280;30667;43.614;1.442;2023-03-15T07:18:16;100365.63;;;9.53;100.00
44934;BME280;30667;43.614;1.442;2023-03-15T07:20:41;100358.06;;;9.55;100.00
44934;BME280;30667;43.614;1.442;2023-03-15T07:23:07;100359.44;;;9.57;100.00
44934;BME280;30667;43.614;1.442;2023-03-15T07:25:32;100352.13;;;9.58;100.00
44934;BME280;30667;43.614;1.442;2023-03-15T07:27:58;100350.78;;;9.60;100.00
44934;BME280;30667;43.614;1.442;2023-03-15T07:30:23;100343.78;;;9.59;100.00
44934;BME280;30667;43.614;1.442;2023-03-15T07:32:48;100347.28;;;9.60;100.00
44934;BME280;30667;43.614;1.442;2023-03-15T07:35:14;100355.38;;;9.60;100.00
44934;BME280;30667;43.614;1.442;2023-03-15T07:37:40;100354.84;;;9.63;100.00
44934;BME280;30667;43.614;1.442;2023-03-15T07:40:08;100349.19;;;9.64;100.00
44934;BME280;30667;43.614;1.442;2023-03-15T07:42:37;100347.88;;;9.67;100.00
44934;BME280;30667;43.614;1.442;2023-03-15T07:45:04;100357.03;;;9.66;100.00
44934;BME280;30667;43.614;1.442;2023-03-15T07:47:30;100353.81;;;9.69;100.00
44934;BME280;30667;43.614;1.442;2023-03-15T07:49:55;100356.25;;;9.71;100.00
44934;BME280;30667;43.614;1.442;2023-03-15T07:52:21;100361.13;;;9.74;100.00
44934;BME280;30667;43.614;1.442;2023-03-15T07:54:47;100358.44;;;9.74;100.00
44934;BME280;30667;43.614;1.442;2023-03-15T07:57:12;100367.63;;;9.78;100.00
44934;BME280;30667;43.614;1.442;2023-03-15T07:59:38;100363.31;;;9.82;100.00
44934;BME280;30667;43.614;1.442;2023-03-15T08:02:03;100370.63;;;9.81;100.00
44934;BME280;30667;43.614;1.442;2023-03-15T08:04:29;100377.94;;;9.86;100.00
44934;BME280;30667;43.614;1.442;2023-03-15T08:06:55;100377.69;;;9.93;100.00
44934;BME280;30667;43.614;1.442;2023-03-15T08:09:21;100380.69;;;10.02;100.00
44934;BME280;30667;43.614;1.442;2023-03-15T08:11:47;100388.81;;;10.07;100.00
44934;BME280;30667;43.614;1.442;2023-03-15T08:14:22;100384.75;;;10.04;100.00
44934;BME280;30667;43.614;1.442;2023-03-15T08:17:17;100375.28;;;10.07;100.00
44934;BME280;30667;43.614;1.442;2023-03-15T08:19:45;100394.53;;;10.15;100.00
44934;BME280;30667;43.614;1.442;2023-03-15T08:22:11;100396.97;;;10.22;100.00
44934;BME280;30667;43.614;1.442;2023-03-15T08:24:36;100399.94;;;10.21;100.00
44934;BME280;30667;43.614;1.442;2023-03-15T08:27:02;100408.91;;;10.21;100.00
44934;BME280;30667;43.614;1.442;2023-03-15T08:29:29;100409.44;;;10.23;100.00
44934;BME280;30667;43.614;1.442;2023-03-15T08:31:56;100414.56;;;10.25;100.00
44934;BME280;30667;43.614;1.442;2023-03-15T08:34:22;100417.03;;;10.26;100.00
44934;BME280;30667;43.614;1.442;2023-03-15T08:36:48;100415.91;;;10.27;100.00
44934;BME280;30667;43.614;1.442;2023-03-15T08:39:13;100418.94;;;10.31;100.00
44934;BME280;30667;43.614;1.442;2023-03-15T08:41:39;100421.59;;;10.26;100.00
44934;BME280;30667;43.614;1.442;2023-03-15T08:44:05;100422.44;;;10.31;100.00
44934;BME280;30667;43.614;1.442;2023-03-15T08:46:31;100424.13;;;10.43;100.00
44934;BME280;30667;43.614;1.442;2023-03-15T08:48:57;100422.47;;;10.42;100.00
44934;BME280;30667;43.614;1.442;2023-03-15T08:51:23;100426.56;;;10.44;100.00
44934;BME280;30667;43.614;1.442;2023-03-15T08:53:49;100422.78;;;10.45;100.00
44934;BME280;30667;43.614;1.442;2023-03-15T08:56:16;100424.16;;;10.53;100.00
44934;BME280;30667;43.614;1.442;2023-03-15T08:58:41;100429.03;;;10.61;100.00
44934;BME280;30667;43.614;1.442;2023-03-15T09:01:07;100432.78;;;10.45;100.00
44934;BME280;30667;43.614;1.442;2023-03-15T09:03:32;100437.09;;;10.41;100.00
44934;BME280;30667;43.614;1.442;2023-03-15T09:05:59;100425.75;;;10.44;100.00
44934;BME280;30667;43.614;1.442;2023-03-15T09:08:25;100433.56;;;10.40;100.00
44934;BME280;30667;43.614;1.442;2023-03-15T09:11:05;100437.63;;;10.38;100.00
44934;BME280;30667;43.614;1.442;2023-03-15T09:13:30;100438.97;;;10.35;100.00
44934;BME280;30667;43.614;1.442;2023-03-15T09:15:56;100438.16;;;10.34;100.00
44934;BME280;30667;43.614;1.442;2023-03-15T09:18:22;100428.91;;;10.30;100.00
44934;BME280;30667;43.614;1.442;2023-03-15T09:20:48;100433.56;;;10.35;100.00
44934;BME280;30667;43.614;1.442;2023-03-15T09:23:13;100434.41;;;10.46;100.00
44934;BME280;30667;43.614;1.442;2023-03-15T09:25:39;100424.44;;;10.51;100.00
44934;BME280;30667;43.614;1.442;2023-03-15T09:28:07;100434.47;;;10.61;100.00
44934;BME280;30667;43.614;1.442;2023-03-15T09:30:34;100425.53;;;10.71;100.00
44934;BME280;30667;43.614;1.442;2023-03-15T09:32:59;100424.75;;;10.76;100.00
44934;BME280;30667;43.614;1.442;2023-03-15T09:35:25;100426.34;;;10.77;100.00
44934;BME280;30667;43.614;1.442;2023-03-15T09:37:51;100435.56;;;10.91;100.00
44934;BME280;30667;43.614;1.442;2023-03-15T09:40:26;100432.31;;;10.89;100.00
44934;BME280;30667;43.614;1.442;2023-03-15T09:43:03;100436.94;;;10.88;100.00
44934;BME280;30667;43.614;1.442;2023-03-15T09:45:59;100438.53;;;10.84;100.00
44934;BME280;30667;43.614;1.442;2023-03-15T09:56:48;100450.47;;;10.99;100.00
44934;BME280;30667;43.614;1.442;2023-03-15T09:59:14;100453.16;;;10.99;100.00
44934;BME280;30667;43.614;1.442;2023-03-15T10:01:42;100447.22;;;11.02;100.00
44934;BME280;30667;43.614;1.442;2023-03-15T10:04:29;100449.66;;;11.03;100.00
44934;BME280;30667;43.614;1.442;2023-03-15T10:06:57;100438.28;;;11.17;100.00
44934;BME280;30667;43.614;1.442;2023-03-15T10:09:27;100452.09;;;11.36;100.00
44934;BME280;30667;43.614;1.442;2023-03-15T10:20:15;100459.69;;;11.44;100.00
44934;BME280;30667;43.614;1.442;2023-03-15T10:25:20;100476.50;;;11.41;100.00
44934;BME280;30667;43.614;1.442;2023-03-15T10:28:01;100477.00;;;11.33;100.00
44934;BME280;30667;43.614;1.442;2023-03-15T10:30:31;100471.34;;;11.19;100.00
44934;BME280;30667;43.614;1.442;2023-03-15T10:33:01;100474.84;;;11.24;100.00
44934;BME280;30667;43.614;1.442;2023-03-15T10:35:28;100474.03;;;11.29;100.00
44934;BME280;30667;43.614;1.442;2023-03-15T10:37:54;100469.16;;;11.41;100.00
44934;BME280;30667;43.614;1.442;2023-03-15T10:40:55;100468.34;;;11.46;100.00
44934;BME280;30667;43.614;1.442;2023-03-15T10:43:25;100473.75;;;11.56;100.00
44934;BME280;30667;43.614;1.442;2023-03-15T10:46:04;100469.97;;;11.47;100.00
44934;BME280;30667;43.614;1.442;2023-03-15T10:48:32;100465.66;;;11.46;100.00
44934;BME280;30667;43.614;1.442;2023-03-15T10:51:12;100464.56;;;11.52;100.00
44934;BME280;30667;43.614;1.442;2023-03-15T10:53:51;100466.44;;;11.67;100.00
44934;BME280;30667;43.614;1.442;2023-03-15T10:56:22;100468.03;;;11.78;100.00
44934;BME280;30667;43.614;1.442;2023-03-15T10:58:54;100460.75;;;11.58;100.00
44934;BME280;30667;43.614;1.442;2023-03-15T11:01:23;100458.88;;;11.54;100.00
44934;BME280;30667;43.614;1.442;2023-03-15T11:07:05;100449.66;;;11.34;100.00
44934;BME280;30667;43.614;1.442;2023-03-15T11:10:02;100442.34;;;11.35;100.00
44934;BME280;30667;43.614;1.442;2023-03-15T11:12:30;100439.63;;;11.45;100.00
44934;BME280;30667;43.614;1.442;2023-03-15T11:15:16;100440.94;;;11.73;100.00
44934;BME280;30667;43.614;1.442;2023-03-15T11:17:47;100436.56;;;11.88;100.00
44934;BME280;30667;43.614;1.442;2023-03-15T11:20:38;100430.59;;;11.86;100.00
44934;BME280;30667;43.614;1.442;2023-03-15T11:23:16;100422.63;;;12.20;100.00
44934;BME280;30667;43.614;1.442;2023-03-15T11:25:42;100421.81;;;12.20;100.00
44934;BME280;30667;43.614;1.442;2023-03-15T11:28:19;100415.03;;;12.22;100.00
44934;BME280;30667;43.614;1.442;2023-03-15T11:30:47;100413.38;;;12.26;100.00
44934;BME280;30667;43.614;1.442;2023-03-15T11:33:44;100412.25;;;12.32;100.00
44934;BME280;30667;43.614;1.442;2023-03-15T11:36:18;100409.56;;;12.32;100.00
44934;BME280;30667;43.614;1.442;2023-03-15T11:38:45;100411.25;;;12.18;100.00
44934;BME280;30667;43.614;1.442;2023-03-15T11:41:37;100410.72;;;12.16;100.00
44934;BME280;30667;43.614;1.442;2023-03-15T11:44:18;100410.72;;;12.11;100.00
44934;BME280;30667;43.614;1.442;2023-03-15T11:46:49;100410.19;;;12.09;100.00
44934;BME280;30667;43.614;1.442;2023-03-15T11:49:32;100407.75;;;12.07;100.00
44934;BME280;30667;43.614;1.442;2023-03-15T11:51:59;100401.78;;;12.10;100.00
44934;BME280;30667;43.614;1.442;2023-03-15T11:54:28;100402.53;;;12.26;100.00
44934;BME280;30667;43.614;1.442;2023-03-15T11:56:56;100403.28;;;12.37;100.00
44934;BME280;30667;43.614;1.442;2023-03-15T11:59:31;100398.97;;;12.31;100.00
44934;BME280;30667;43.614;1.442;2023-03-15T12:01:58;100405.75;;;12.33;100.00
44934;BME280;30667;43.614;1.442;2023-03-15T12:06:54;100390.75;;;12.41;100.00
44934;BME280;30667;43.614;1.442;2023-03-15T12:17:56;100387.75;;;12.48;100.00
44934;BME280;30667;43.614;1.442;2023-03-15T12:25:56;100379.06;;;12.46;100.00
44934;BME280;30667;43.614;1.442;2023-03-15T12:31:19;100368.22;;;12.46;100.00
44934;BME280;30667;43.614;1.442;2023-03-15T12:33:53;100367.31;;;12.61;100.00
44934;BME280;30667;43.614;1.442;2023-03-15T12:36:45;100357.47;;;12.70;100.00
44934;BME280;30667;43.614;1.442;2023-03-15T12:41:42;100353.38;;;12.72;100.00
44934;BME280;30667;43.614;1.442;2023-03-15T12:44:36;100344.16;;;12.74;100.00
44934;BME280;30667;43.614;1.442;2023-03-15T12:47:04;100335.16;;;12.78;100.00
44934;BME280;30667;43.614;1.442;2023-03-15T12:49:37;100337.09;;;12.72;100.00
44934;BME280;30667;43.614;1.442;2023-03-15T12:52:27;100334.69;;;13.00;100.00
44934;BME280;30667;43.614;1.442;2023-03-15T12:55:15;100322.63;;;13.12;100.00
44934;BME280;30667;43.614;1.442;2023-03-15T12:57:49;100321.28;;;13.09;100.00
44934;BME280;30667;43.614;1.442;2023-03-15T13:00:22;100317.78;;;13.03;100.00
44934;BME280;30667;43.614;1.442;2023-03-15T13:08:23;100302.28;;;12.80;100.00
44934;BME280;30667;43.614;1.442;2023-03-15T13:16:23;100296.94;;;12.69;100.00
44934;BME280;30667;43.614;1.442;2023-03-15T13:18:57;100296.06;;;12.74;100.00
44934;BME280;30667;43.614;1.442;2023-03-15T13:23:50;100274.94;;;13.00;100.00
44934;BME280;30667;43.614;1.442;2023-03-15T13:31:31;100277.69;;;12.95;100.00
44934;BME280;30667;43.614;1.442;2023-03-15T13:34:10;100269.81;;;12.94;100.00
44934;BME280;30667;43.614;1.442;2023-03-15T13:36:48;100265.16;;;12.99;100.00
44934;BME280;30667;43.614;1.442;2023-03-15T13:39:25;100258.44;;;12.92;100.00
44934;BME280;30667;43.614;1.442;2023-03-15T13:42:01;100249.44;;;12.96;100.00
44934;BME280;30667;43.614;1.442;2023-03-15T13:44:28;100246.03;;;13.09;100.00
44934;BME280;30667;43.614;1.442;2023-03-15T13:46:55;100242.50;;;13.09;100.00
44934;BME280;30667;43.614;1.442;2023-03-15T13:49:22;100246.91;;;13.29;100.00
44934;BME280;30667;43.614;1.442;2023-03-15T13:51:49;100245.44;;;13.42;100.00
44934;BME280;30667;43.614;1.442;2023-03-15T14:02:20;100240.38;;;13.06;100.00
44934;BME280;30667;43.614;1.442;2023-03-15T14:04:56;100226.78;;;13.06;100.00
44934;BME280;30667;43.614;1.442;2023-03-15T14:07:36;100227.53;;;13.12;100.00
44934;BME280;30667;43.614;1.442;2023-03-15T14:12:44;100225.28;;;13.19;100.00
44934;BME280;30667;43.614;1.442;2023-03-15T14:18:15;100220.25;;;13.31;100.00